createdAt,value
2022-08-20T00:04:24.363Z,19.90
2022-08-20T00:09:26.637Z,19.90
2022-08-20T00:14:33.872Z,19.80
2022-08-20T00:19:36.157Z,19.30
2022-08-20T00:24:38.255Z,18.60
2022-08-20T00:29:40.101Z,17.90
2022-08-20T00:34:42.499Z,17.50
2022-08-20T00:39:44.904Z,17.40
2022-08-20T00:44:47.784Z,17.50
2022-08-20T00:49:49.617Z,17.60
2022-08-20T00:54:59.729Z,17.50
2022-08-20T01:00:05.953Z,17.50
2022-08-20T01:05:09.297Z,17.60
2022-08-20T01:10:36.766Z,17.60
2022-08-20T01:15:43.325Z,17.70
2022-08-20T01:20:53.976Z,17.70
2022-08-20T01:26:19.002Z,17.70
2022-08-20T01:31:23.292Z,17.70
2022-08-20T01:36:30.309Z,17.70
2022-08-20T01:41:49.899Z,17.70
2022-08-20T01:46:57.693Z,17.70
2022-08-20T01:52:00.892Z,17.70
2022-08-20T01:57:06.962Z,17.70
2022-08-20T02:02:10.261Z,17.60
2022-08-20T02:07:20.310Z,17.70
2022-08-20T02:12:22.126Z,17.60
2022-08-20T02:17:25.550Z,17.70
2022-08-20T02:22:53.771Z,17.60
2022-08-20T02:27:59.062Z,17.50
2022-08-20T02:33:04.027Z,17.40
2022-08-20T02:38:07.957Z,17.50
2022-08-20T02:43:10.478Z,17.50
2022-08-20T02:48:21.096Z,17.40
2022-08-20T02:53:25.214Z,17.40
2022-08-20T02:58:27.523Z,17.30
2022-08-20T03:03:29.564Z,17.20
2022-08-20T03:08:31.564Z,17.20
2022-08-20T03:13:33.799Z,17.10
2022-08-20T03:18:40.931Z,17.00
2022-08-20T03:23:43.729Z,17.00
2022-08-20T03:28:45.489Z,16.90
2022-08-20T03:33:53.616Z,16.90
2022-08-20T03:39:01.006Z,16.90
2022-08-20T03:44:03.083Z,16.90
2022-08-20T03:49:05.473Z,16.90
2022-08-20T03:54:07.279Z,16.80
2022-08-20T03:59:09.126Z,16.90
2022-08-20T04:04:12.603Z,16.90
2022-08-20T04:09:15.389Z,16.90
2022-08-20T04:14:18.491Z,16.90
2022-08-20T04:19:21.594Z,16.90
2022-08-20T04:24:32.074Z,16.90
2022-08-20T04:29:36.684Z,16.90
2022-08-20T04:34:39.202Z,16.90
2022-08-20T04:39:41.032Z,16.80
2022-08-20T04:44:42.810Z,16.80
2022-08-20T04:49:44.566Z,16.90
2022-08-20T04:54:46.930Z,16.80
2022-08-20T04:59:48.701Z,16.90
2022-08-20T05:04:50.670Z,16.90
2022-08-20T05:09:52.440Z,16.80
2022-08-20T05:14:54.251Z,16.90
2022-08-20T05:19:57.355Z,17.00
2022-08-20T05:25:01.603Z,16.90
2022-08-20T05:30:08.797Z,17.00
2022-08-20T05:35:13.535Z,16.90
2022-08-20T05:40:16.254Z,16.90
2022-08-20T05:45:18.265Z,17.00
2022-08-20T05:50:23.299Z,17.00
2022-08-20T05:55:25.354Z,17.10
2022-08-20T06:00:27.938Z,17.10
2022-08-20T06:05:29.727Z,17.20
2022-08-20T06:10:31.914Z,17.20
2022-08-20T06:15:34.721Z,17.30
2022-08-20T06:20:38.380Z,17.30
2022-08-20T06:25:40.150Z,17.40
2022-08-20T06:30:41.991Z,17.50
2022-08-20T06:35:44.628Z,17.50
2022-08-20T06:40:46.385Z,17.50
2022-08-20T06:45:48.179Z,17.50
2022-08-20T06:50:50.135Z,17.50
2022-08-20T06:55:55.185Z,17.50
2022-08-20T07:00:56.992Z,17.60
2022-08-20T07:05:59.408Z,17.60
2022-08-20T07:11:01.694Z,17.60
2022-08-20T07:16:05.147Z,17.60
2022-08-20T07:21:06.912Z,17.60
2022-08-20T07:26:08.765Z,17.70
2022-08-20T07:31:31.276Z,17.60
2022-08-20T07:36:33.425Z,17.70
2022-08-20T07:41:35.251Z,17.70
2022-08-20T07:46:37.076Z,17.80
2022-08-20T07:51:38.879Z,17.80
2022-08-20T07:56:40.650Z,17.90
2022-08-20T08:01:42.418Z,17.90
2022-08-20T08:06:45.407Z,17.80
2022-08-20T08:11:50.496Z,17.80
2022-08-20T08:16:57.221Z,17.90
2022-08-20T08:21:59.021Z,17.90
2022-08-20T08:27:00.846Z,18.00
2022-08-20T08:32:04.360Z,18.00
2022-08-20T08:37:06.151Z,18.00
2022-08-20T08:42:27.122Z,18.00
2022-08-20T08:47:35.929Z,18.10
2022-08-20T08:52:42.744Z,18.10
2022-08-20T08:57:46.605Z,18.20
2022-08-20T09:03:01.729Z,18.20
2022-08-20T09:08:06.927Z,18.20
2022-08-20T09:13:08.951Z,18.20
2022-08-20T09:18:10.718Z,18.20
2022-08-20T09:23:12.794Z,18.20
2022-08-20T09:28:14.611Z,18.20
2022-08-20T09:33:16.658Z,18.20
2022-08-20T09:38:18.489Z,18.20
2022-08-20T09:43:20.334Z,18.10
2022-08-20T09:48:22.119Z,18.20
2022-08-20T09:53:34.818Z,18.30
2022-08-20T09:58:39.494Z,18.40
2022-08-20T10:03:42.895Z,18.40
2022-08-20T10:08:44.669Z,18.40
2022-08-20T10:13:46.465Z,18.40
2022-08-20T10:18:50.950Z,18.40
2022-08-20T10:23:52.784Z,18.50
2022-08-20T10:28:55.910Z,18.40
2022-08-20T10:33:57.907Z,18.50
2022-08-20T10:38:59.811Z,18.50
2022-08-20T10:44:01.591Z,18.60
2022-08-20T10:49:03.819Z,18.60
2022-08-20T10:54:08.200Z,18.70
2022-08-20T10:59:13.987Z,18.60
2022-08-20T11:04:15.798Z,18.70
2022-08-20T11:09:17.562Z,18.70
2022-08-20T11:14:19.318Z,18.70
2022-08-20T11:19:21.075Z,18.70
2022-08-20T11:24:22.937Z,18.80
2022-08-20T11:29:24.997Z,18.80
2022-08-20T11:34:26.850Z,18.70
2022-08-20T11:39:28.706Z,18.60
2022-08-20T11:44:30.495Z,18.60
2022-08-20T11:49:34.795Z,18.50
2022-08-20T11:54:40.410Z,18.60
2022-08-20T11:59:42.574Z,18.60
2022-08-20T12:04:44.455Z,18.70
2022-08-20T12:09:51.121Z,18.80
2022-08-20T12:14:55.595Z,18.90
2022-08-20T12:20:01.620Z,18.90
2022-08-20T12:25:04.882Z,19.00
2022-08-20T12:30:14.045Z,19.00
2022-08-20T12:35:17.966Z,19.20
2022-08-20T12:40:30.541Z,19.30
2022-08-20T12:45:34.747Z,19.40
2022-08-20T12:50:39.027Z,19.50
2022-08-20T12:55:41.179Z,19.60
2022-08-20T13:00:50.337Z,19.60
2022-08-20T13:05:52.899Z,19.60
2022-08-20T13:10:54.650Z,19.60
2022-08-20T13:15:56.434Z,19.50
2022-08-20T13:20:58.214Z,19.40
2022-08-20T13:26:00.074Z,19.40
2022-08-20T13:31:04.539Z,19.40
2022-08-20T13:36:06.583Z,19.30
2022-08-20T13:41:08.353Z,19.30
2022-08-20T13:46:10.230Z,19.20
2022-08-20T13:51:12.121Z,19.20
2022-08-20T13:56:13.964Z,19.20
2022-08-20T14:01:15.768Z,19.10
2022-08-20T14:06:17.558Z,19.10
2022-08-20T14:11:19.412Z,19.10
2022-08-20T14:16:25.480Z,19.10
2022-08-20T14:21:29.626Z,19.10
2022-08-20T14:26:31.379Z,19.10
2022-08-20T14:31:33.145Z,19.20
2022-08-20T14:36:35.026Z,19.20
2022-08-20T14:41:36.782Z,19.40
2022-08-20T14:46:38.549Z,19.40
2022-08-20T14:51:40.402Z,19.40
2022-08-20T14:56:42.415Z,19.40
2022-08-20T15:01:44.259Z,19.30
2022-08-20T15:06:47.190Z,19.30
2022-08-20T15:11:49.257Z,19.30
2022-08-20T15:16:51.379Z,19.30
2022-08-20T15:21:53.174Z,19.30
2022-08-20T15:26:55.056Z,19.40
2022-08-20T15:31:58.167Z,19.40
2022-08-20T15:37:06.987Z,19.60
2022-08-20T15:42:10.491Z,19.60
2022-08-20T15:47:35.836Z,19.50
2022-08-20T15:52:42.186Z,19.40
2022-08-20T15:57:59.258Z,19.40
2022-08-20T16:03:25.988Z,19.40
2022-08-20T16:08:41.375Z,19.40
2022-08-20T16:13:54.317Z,19.20
2022-08-20T16:19:00.512Z,19.20
2022-08-20T16:24:05.746Z,19.10
2022-08-20T16:29:26.216Z,19.10
2022-08-20T16:34:40.423Z,19.00
2022-08-20T16:40:10.346Z,19.10
2022-08-20T16:45:34.726Z,19.10
2022-08-20T16:51:01.414Z,19.10
2022-08-20T16:56:03.813Z,19.10
2022-08-20T17:01:14.684Z,19.00
2022-08-20T17:06:41.582Z,18.90
2022-08-20T17:11:43.424Z,18.90
2022-08-20T17:16:51.542Z,18.90
2022-08-20T17:21:53.615Z,18.90
2022-08-20T17:27:02.330Z,18.80
2022-08-20T17:32:26.498Z,18.80
2022-08-20T17:37:40.794Z,18.70
2022-08-20T17:43:01.329Z,18.50
2022-08-20T17:48:07.012Z,18.50
2022-08-20T17:53:23.412Z,18.50
2022-08-20T17:58:37.897Z,18.60
2022-08-20T18:03:39.928Z,18.60
2022-08-20T18:08:57.279Z,18.60
2022-08-20T18:14:03.459Z,18.60
2022-08-20T18:19:17.884Z,18.60
2022-08-20T18:24:44.266Z,18.50
2022-08-20T18:29:51.227Z,18.50
2022-08-20T18:34:54.338Z,18.30
2022-08-20T18:40:18.489Z,18.30
2022-08-20T18:45:32.496Z,18.30
2022-08-20T18:50:47.464Z,18.30
2022-08-20T18:56:08.949Z,18.30
2022-08-20T19:01:13.536Z,18.20
2022-08-20T19:06:31.436Z,18.20
2022-08-20T19:11:51.690Z,18.20
2022-08-20T19:17:01.966Z,18.10
2022-08-20T19:22:04.538Z,18.00
2022-08-20T19:27:08.909Z,18.00
2022-08-20T19:32:19.155Z,18.00
2022-08-20T19:37:34.350Z,17.90
2022-08-20T19:42:43.415Z,17.80
2022-08-20T19:48:05.499Z,17.80
2022-08-20T19:53:07.222Z,17.80
2022-08-20T19:58:26.614Z,17.70
2022-08-20T20:03:32.178Z,17.80
2022-08-20T20:08:41.443Z,17.80
2022-08-20T20:13:44.349Z,17.80
2022-08-20T20:18:54.813Z,17.70
2022-08-20T20:24:06.837Z,17.80
2022-08-20T20:29:21.446Z,17.70
2022-08-20T20:34:35.866Z,17.70
2022-08-20T20:39:42.439Z,17.70
2022-08-20T20:44:44.889Z,17.70
2022-08-20T20:49:54.132Z,17.70
2022-08-20T20:55:14.311Z,17.70
2022-08-20T21:00:18.975Z,17.70
2022-08-20T21:05:25.003Z,17.70
2022-08-20T21:10:32.116Z,17.70
2022-08-20T21:15:35.813Z,17.60
2022-08-20T21:20:38.020Z,17.70
2022-08-20T21:25:40.534Z,17.60
2022-08-20T21:30:42.295Z,17.60
2022-08-20T21:35:44.583Z,17.60
2022-08-20T21:40:46.386Z,17.50
2022-08-20T21:45:49.672Z,17.50
2022-08-20T21:50:51.578Z,17.60
2022-08-20T21:55:53.493Z,17.60
2022-08-20T22:01:00.490Z,17.60
2022-08-20T22:06:04.734Z,17.60
2022-08-20T22:11:09.454Z,17.60
2022-08-20T22:16:14.878Z,17.60
2022-08-20T22:21:25.492Z,17.60
2022-08-20T22:26:28.018Z,17.60
2022-08-20T22:31:32.313Z,17.60
2022-08-20T22:36:34.390Z,17.60
2022-08-20T22:41:36.965Z,17.60
2022-08-20T22:46:47.366Z,17.50
2022-08-20T22:51:50.795Z,17.50
2022-08-20T22:56:55.454Z,17.50
2022-08-20T23:01:57.410Z,17.50
2022-08-20T23:07:00.448Z,17.50
2022-08-20T23:12:02.307Z,17.40
2022-08-20T23:17:13.118Z,17.40
2022-08-20T23:22:16.098Z,17.40
2022-08-20T23:27:20.643Z,17.40
2022-08-20T23:32:22.439Z,17.40
2022-08-20T23:37:24.345Z,17.40
2022-08-20T23:42:26.214Z,17.30
2022-08-20T23:47:28.642Z,17.30
2022-08-20T23:52:30.622Z,17.30
2022-08-20T23:57:32.958Z,17.30
